createdAt,value
2018-04-26T00:01:22.488Z,10.39
2018-04-26T00:02:22.412Z,10.43
2018-04-26T00:04:14.183Z,10.34
2018-04-26T00:05:14.117Z,10.39
2018-04-26T00:07:05.885Z,10.32
2018-04-26T00:08:05.801Z,10.26
2018-04-26T00:09:57.554Z,10.10
2018-04-26T00:10:57.485Z,10.22
2018-04-26T00:12:49.263Z,10.16
2018-04-26T00:13:49.189Z,10.02
2018-04-26T00:15:40.978Z,10.04
2018-04-26T00:16:40.890Z,10.01
2018-04-26T00:18:32.651Z,9.86
2018-04-26T00:19:32.592Z,9.91
2018-04-26T00:21:24.341Z,9.92
2018-04-26T00:22:24.266Z,9.86
2018-04-26T00:24:16.020Z,9.91
2018-04-26T00:25:15.959Z,9.92
2018-04-26T00:27:07.727Z,9.99
2018-04-26T00:28:07.646Z,9.92
2018-04-26T00:29:59.403Z,9.89
2018-04-26T00:30:59.344Z,9.96
2018-04-26T00:32:51.111Z,9.96
2018-04-26T00:33:51.039Z,9.95
2018-04-26T00:35:42.768Z,9.86
2018-04-26T00:36:42.706Z,9.93
2018-04-26T00:38:34.465Z,9.88
2018-04-26T00:39:34.399Z,9.95
2018-04-26T00:41:26.132Z,9.98
2018-04-26T00:42:26.063Z,9.89
2018-04-26T00:44:17.860Z,9.81
2018-04-26T00:45:17.785Z,9.86
2018-04-26T00:47:09.535Z,9.88
2018-04-26T00:48:09.467Z,9.89
2018-04-26T00:50:01.251Z,9.88
2018-04-26T00:51:01.173Z,9.81
2018-04-26T00:52:52.933Z,9.74
2018-04-26T00:53:52.869Z,9.74
2018-04-26T00:55:44.614Z,9.65
2018-04-26T00:56:44.546Z,9.71
2018-04-26T00:58:36.293Z,9.65
2018-04-26T00:59:36.230Z,9.55
2018-04-26T01:01:27.992Z,9.41
2018-04-26T01:02:27.916Z,9.42
2018-04-26T01:04:19.668Z,9.37
2018-04-26T01:05:19.594Z,9.40
2018-04-26T01:07:11.360Z,9.34
2018-04-26T01:08:11.289Z,9.41
2018-04-26T01:10:03.039Z,9.37
2018-04-26T01:11:02.978Z,9.44
2018-04-26T01:12:54.724Z,9.45
2018-04-26T01:13:54.653Z,9.44
2018-04-26T01:15:46.405Z,9.45
2018-04-26T01:16:46.335Z,9.34
2018-04-26T01:18:38.092Z,9.35
2018-04-26T01:19:38.019Z,9.37
2018-04-26T01:21:29.760Z,9.32
2018-04-26T01:22:29.695Z,9.30
2018-04-26T01:24:21.459Z,9.35
2018-04-26T01:25:21.382Z,9.30
2018-04-26T01:27:13.135Z,9.16
2018-04-26T01:28:13.058Z,9.16
2018-04-26T01:30:04.832Z,9.10
2018-04-26T01:31:04.765Z,9.04
2018-04-26T01:32:56.519Z,9.16
2018-04-26T01:33:56.445Z,9.04
2018-04-26T01:35:48.190Z,9.22
2018-04-26T01:36:48.125Z,9.17
2018-04-26T01:38:39.912Z,9.17
2018-04-26T01:39:39.840Z,9.13
2018-04-26T01:41:31.592Z,9.10
2018-04-26T01:42:31.526Z,9.12
2018-04-26T01:44:23.295Z,8.93
2018-04-26T01:45:23.225Z,8.89
2018-04-26T01:47:14.965Z,8.89
2018-04-26T01:48:14.899Z,8.88
2018-04-26T01:50:06.661Z,8.88
2018-04-26T01:51:06.580Z,8.93
2018-04-26T01:52:58.328Z,8.88
2018-04-26T01:53:58.273Z,8.93
2018-04-26T01:55:50.021Z,8.94
2018-04-26T01:56:49.946Z,8.88
2018-04-26T01:58:41.703Z,8.86
2018-04-26T01:59:41.629Z,8.89
2018-04-26T02:01:33.377Z,8.86
2018-04-26T02:02:33.314Z,8.86
2018-04-26T02:04:25.072Z,8.86
2018-04-26T02:05:24.998Z,8.83
2018-04-26T02:07:16.740Z,8.76
2018-04-26T02:08:16.692Z,8.73
2018-04-26T02:10:08.430Z,8.76
2018-04-26T02:11:08.360Z,8.71
2018-04-26T02:13:00.102Z,8.68
2018-04-26T02:14:00.032Z,8.68
2018-04-26T02:15:51.795Z,8.57
2018-04-26T02:16:51.716Z,8.52
2018-04-26T02:18:43.474Z,8.55
2018-04-26T02:19:43.404Z,8.49
2018-04-26T02:21:35.170Z,8.46
2018-04-26T02:22:35.095Z,8.52
2018-04-26T02:24:26.842Z,8.40
2018-04-26T02:25:26.775Z,8.43
2018-04-26T02:27:18.543Z,8.49
2018-04-26T02:28:18.461Z,8.49
2018-04-26T02:30:10.278Z,8.47
2018-04-26T02:31:10.130Z,8.43
2018-04-26T02:33:01.884Z,8.39
2018-04-26T02:34:01.811Z,8.32
2018-04-26T02:35:53.617Z,8.28
2018-04-26T02:36:53.516Z,8.22
2018-04-26T02:38:45.272Z,8.27
2018-04-26T02:39:45.210Z,8.17
2018-04-26T02:41:36.991Z,8.31
2018-04-26T02:42:36.922Z,8.24
2018-04-26T02:44:28.711Z,8.22
2018-04-26T02:45:28.638Z,8.22
2018-04-26T02:47:20.407Z,8.21
2018-04-26T02:48:20.333Z,8.21
2018-04-26T02:50:12.105Z,8.14
2018-04-26T02:51:12.031Z,8.12
2018-04-26T02:53:03.797Z,8.13
2018-04-26T02:54:03.717Z,7.96
2018-04-26T02:55:55.473Z,8.10
2018-04-26T02:56:55.409Z,8.09
2018-04-26T02:58:47.187Z,8.09
2018-04-26T02:59:47.112Z,8.00
2018-04-26T03:01:38.854Z,8.09
2018-04-26T03:02:38.795Z,8.09
2018-04-26T03:04:30.550Z,8.06
2018-04-26T03:05:30.471Z,8.03
2018-04-26T03:07:22.281Z,7.94
2018-04-26T03:08:22.298Z,7.99
2018-04-26T03:10:13.958Z,7.95
2018-04-26T03:11:13.891Z,7.95
2018-04-26T03:13:05.640Z,7.89
2018-04-26T03:14:05.575Z,7.92
2018-04-26T03:15:57.334Z,7.94
2018-04-26T03:16:57.261Z,7.94
2018-04-26T03:18:49.002Z,7.92
2018-04-26T03:19:48.936Z,7.79
2018-04-26T03:21:40.692Z,7.89
2018-04-26T03:22:40.608Z,7.86
2018-04-26T03:24:32.379Z,7.92
2018-04-26T03:25:32.312Z,7.91
2018-04-26T03:27:24.074Z,7.84
2018-04-26T03:28:23.997Z,7.84
2018-04-26T03:30:15.756Z,7.79
2018-04-26T03:31:15.801Z,7.73
2018-04-26T03:33:07.446Z,7.84
2018-04-26T03:34:07.371Z,7.69
2018-04-26T03:35:59.113Z,7.71
2018-04-26T03:36:59.046Z,7.70
2018-04-26T03:38:50.859Z,7.60
2018-04-26T03:39:50.776Z,7.70
2018-04-26T03:41:42.501Z,7.73
2018-04-26T03:42:42.436Z,7.73
2018-04-26T03:44:34.186Z,7.69
2018-04-26T03:45:34.111Z,7.66
2018-04-26T03:47:25.850Z,7.70
2018-04-26T03:48:25.794Z,7.73
2018-04-26T03:50:17.549Z,7.81
2018-04-26T03:51:17.477Z,7.86
2018-04-26T03:53:09.241Z,7.95
2018-04-26T03:54:09.175Z,7.91
2018-04-26T03:56:00.933Z,7.96
2018-04-26T03:57:00.858Z,7.95
2018-04-26T03:58:52.597Z,7.94
2018-04-26T03:59:52.534Z,8.00
2018-04-26T04:01:44.300Z,7.99
2018-04-26T04:02:44.223Z,8.06
2018-04-26T04:04:35.977Z,8.12
2018-04-26T04:05:35.920Z,8.07
2018-04-26T04:07:27.703Z,8.17
2018-04-26T04:08:27.649Z,8.13
2018-04-26T04:10:19.349Z,8.21
2018-04-26T04:11:19.282Z,8.18
2018-04-26T04:13:11.058Z,8.18
2018-04-26T04:14:10.974Z,8.17
2018-04-26T04:16:02.731Z,8.21
2018-04-26T04:17:02.667Z,8.14
2018-04-26T04:18:54.423Z,8.29
2018-04-26T04:19:54.351Z,8.22
2018-04-26T04:21:46.100Z,8.28
2018-04-26T04:22:46.035Z,8.39
2018-04-26T04:24:37.806Z,8.47
2018-04-26T04:25:37.724Z,8.52
2018-04-26T04:27:29.481Z,8.49
2018-04-26T04:28:29.415Z,8.46
2018-04-26T04:30:21.181Z,8.58
2018-04-26T04:31:21.106Z,8.57
2018-04-26T04:33:12.856Z,8.65
2018-04-26T04:34:12.790Z,8.67
2018-04-26T04:36:04.573Z,8.63
2018-04-26T04:37:04.476Z,8.75
2018-04-26T04:38:56.228Z,8.86
2018-04-26T04:39:56.162Z,8.94
2018-04-26T04:41:47.975Z,9.06
2018-04-26T04:42:47.879Z,9.16
2018-04-26T04:44:39.659Z,9.31
2018-04-26T04:45:39.575Z,9.34
2018-04-26T04:47:31.351Z,9.41
2018-04-26T04:48:31.277Z,9.41
2018-04-26T04:50:23.046Z,9.52
2018-04-26T04:51:22.971Z,9.52
2018-04-26T04:53:14.729Z,9.56
2018-04-26T04:54:14.660Z,9.49
2018-04-26T04:56:06.424Z,9.59
2018-04-26T04:57:06.352Z,9.52
2018-04-26T04:58:58.094Z,9.50
2018-04-26T04:59:58.038Z,9.52
2018-04-26T05:01:49.899Z,9.50
2018-04-26T05:02:49.809Z,9.56
2018-04-26T05:04:41.581Z,9.59
2018-04-26T05:05:41.507Z,9.62
2018-04-26T05:07:33.278Z,9.70
2018-04-26T05:08:33.206Z,9.71
2018-04-26T05:10:25.005Z,9.70
2018-04-26T05:11:24.899Z,9.68
2018-04-26T05:13:16.696Z,9.75
2018-04-26T05:14:16.629Z,9.77
2018-04-26T05:16:08.390Z,9.91
2018-04-26T05:17:08.346Z,9.89
2018-04-26T05:19:00.090Z,9.91
2018-04-26T05:20:00.036Z,9.98
2018-04-26T05:21:51.800Z,9.99
2018-04-26T05:22:51.725Z,10.02
2018-04-26T05:24:43.538Z,9.93
2018-04-26T05:25:43.444Z,10.04
2018-04-26T05:27:35.203Z,9.89
2018-04-26T05:28:35.134Z,9.92
2018-04-26T05:30:27.015Z,9.83
2018-04-26T05:31:26.839Z,9.86
2018-04-26T05:33:18.608Z,9.89
2018-04-26T05:34:18.531Z,9.98
2018-04-26T05:36:10.298Z,9.99
2018-04-26T05:37:10.228Z,9.99
2018-04-26T05:39:02.053Z,10.02
2018-04-26T05:40:01.942Z,9.98
2018-04-26T05:41:53.708Z,10.02
2018-04-26T05:42:53.640Z,10.07
2018-04-26T05:44:45.433Z,10.29
2018-04-26T05:45:45.348Z,10.36
2018-04-26T05:47:37.109Z,10.55
2018-04-26T05:48:37.067Z,10.66
2018-04-26T05:50:28.804Z,10.73
2018-04-26T05:51:28.758Z,10.91
2018-04-26T05:53:20.530Z,11.59
2018-04-26T05:54:20.470Z,11.49
2018-04-26T05:56:12.224Z,11.66
2018-04-26T05:57:12.152Z,11.72
2018-04-26T05:59:03.923Z,11.67
2018-04-26T06:00:03.847Z,11.51
2018-04-26T06:01:55.655Z,11.72
2018-04-26T06:02:55.549Z,11.93
2018-04-26T06:04:47.321Z,12.52
2018-04-26T06:05:47.234Z,12.61
2018-04-26T06:07:39.057Z,12.87
2018-04-26T06:08:38.970Z,12.71
2018-04-26T06:10:30.750Z,12.79
2018-04-26T06:11:30.646Z,12.59
2018-04-26T06:13:22.425Z,12.34
2018-04-26T06:14:22.349Z,12.34
2018-04-26T06:16:14.181Z,12.29
2018-04-26T06:17:14.104Z,12.11
2018-04-26T06:19:05.916Z,12.01
2018-04-26T06:20:05.768Z,11.90
2018-04-26T06:21:57.543Z,11.87
2018-04-26T06:22:57.485Z,11.85
2018-04-26T06:24:49.262Z,11.85
2018-04-26T06:25:49.187Z,11.81
2018-04-26T06:27:40.955Z,11.79
2018-04-26T06:28:40.885Z,11.88
2018-04-26T06:30:32.690Z,12.01
2018-04-26T06:31:32.617Z,12.11
2018-04-26T06:33:24.382Z,12.26
2018-04-26T06:34:24.326Z,12.22
2018-04-26T06:36:16.137Z,12.58
2018-04-26T06:37:16.012Z,12.73
2018-04-26T06:39:07.806Z,12.94
2018-04-26T06:40:07.731Z,12.92
2018-04-26T06:41:59.513Z,13.01
2018-04-26T06:42:59.437Z,13.09
2018-04-26T06:44:51.386Z,13.01
2018-04-26T06:45:51.142Z,12.89
2018-04-26T06:47:43.036Z,12.73
2018-04-26T06:48:42.890Z,12.54
2018-04-26T06:50:34.715Z,12.46
2018-04-26T06:51:34.618Z,12.43
2018-04-26T06:53:26.476Z,12.40
2018-04-26T06:54:26.310Z,12.41
2018-04-26T06:56:18.124Z,12.44
2018-04-26T06:57:18.047Z,12.34
2018-04-26T06:59:09.895Z,12.33
2018-04-26T07:00:09.748Z,12.29
2018-04-26T07:02:01.540Z,12.18
2018-04-26T07:03:01.509Z,12.11
2018-04-26T07:04:53.267Z,12.15
2018-04-26T07:05:53.217Z,12.04
2018-04-26T07:07:44.965Z,11.98
2018-04-26T07:08:44.899Z,11.97
2018-04-26T07:10:36.701Z,12.00
2018-04-26T07:11:36.689Z,11.93
2018-04-26T07:13:28.401Z,11.93
2018-04-26T07:14:28.325Z,12.00
2018-04-26T07:16:20.098Z,11.88
2018-04-26T07:17:20.017Z,11.82
2018-04-26T07:19:12.838Z,11.81
2018-04-26T07:20:11.724Z,11.77
2018-04-26T07:22:03.492Z,11.69
2018-04-26T07:23:03.417Z,11.63
2018-04-26T07:24:55.251Z,11.59
2018-04-26T07:25:55.119Z,11.54
2018-04-26T07:27:46.898Z,11.41
2018-04-26T07:28:46.823Z,11.39
2018-04-26T07:30:38.591Z,11.44
2018-04-26T07:31:38.506Z,11.39
2018-04-26T07:33:30.264Z,11.60
2018-04-26T07:34:30.217Z,11.67
2018-04-26T07:36:22.016Z,12.12
2018-04-26T07:37:21.936Z,12.13
2018-04-26T07:39:13.709Z,12.66
2018-04-26T07:40:13.675Z,13.39
2018-04-26T07:42:05.437Z,14.26
2018-04-26T07:43:05.368Z,14.79
2018-04-26T07:44:57.129Z,15.34
2018-04-26T07:45:57.077Z,15.73
2018-04-26T07:47:48.848Z,16.65
2018-04-26T07:48:48.770Z,16.66
2018-04-26T07:50:40.567Z,16.63
2018-04-26T07:51:40.491Z,15.96
2018-04-26T07:53:32.357Z,15.46
2018-04-26T07:54:32.277Z,15.37
2018-04-26T07:56:24.105Z,15.31
2018-04-26T07:57:24.045Z,15.25
2018-04-26T07:59:15.835Z,15.18
2018-04-26T08:00:15.806Z,15.37
2018-04-26T08:02:07.548Z,16.25
2018-04-26T08:03:07.485Z,16.06
2018-04-26T08:04:59.287Z,16.69
2018-04-26T08:05:59.214Z,16.75
2018-04-26T08:07:51.001Z,16.62
2018-04-26T08:08:50.921Z,16.80
2018-04-26T08:10:42.712Z,17.12
2018-04-26T08:11:42.731Z,17.57
2018-04-26T08:13:34.545Z,17.65
2018-04-26T08:14:34.364Z,17.10
2018-04-26T08:16:26.153Z,16.69
2018-04-26T08:17:26.104Z,16.55
2018-04-26T08:19:17.897Z,16.44
2018-04-26T08:20:17.838Z,17.10
2018-04-26T08:22:09.627Z,17.12
2018-04-26T08:23:09.596Z,16.96
2018-04-26T08:25:01.345Z,16.40
2018-04-26T08:26:01.298Z,16.01
2018-04-26T08:27:53.041Z,15.40
2018-04-26T08:28:52.967Z,15.16
2018-04-26T08:30:44.746Z,14.71
2018-04-26T08:31:44.686Z,14.53
2018-04-26T08:33:36.513Z,14.12
2018-04-26T08:34:36.445Z,14.04
2018-04-26T08:36:28.207Z,13.91
2018-04-26T08:37:28.134Z,13.83
2018-04-26T08:39:19.917Z,13.83
2018-04-26T08:40:19.849Z,13.62
2018-04-26T08:42:11.655Z,13.55
2018-04-26T08:43:11.552Z,13.47
2018-04-26T08:45:03.364Z,13.09
2018-04-26T08:46:03.288Z,13.07
2018-04-26T08:47:55.075Z,12.99
2018-04-26T08:48:54.986Z,12.98
2018-04-26T08:50:46.787Z,12.89
2018-04-26T08:51:46.700Z,12.79
2018-04-26T08:53:38.450Z,12.61
2018-04-26T08:54:38.443Z,12.62
2018-04-26T08:56:30.177Z,14.19
2018-04-26T08:57:30.090Z,15.58
2018-04-26T08:59:21.877Z,17.00
2018-04-26T09:00:21.801Z,17.00
2018-04-26T09:02:13.575Z,16.60
2018-04-26T09:03:13.517Z,16.80
2018-04-26T09:05:05.307Z,16.72
2018-04-26T09:06:05.259Z,16.45
2018-04-26T09:07:57.020Z,15.91
2018-04-26T09:08:56.945Z,16.18
2018-04-26T09:10:48.714Z,15.41
2018-04-26T09:11:48.649Z,14.97
2018-04-26T09:13:40.451Z,14.60
2018-04-26T09:14:40.382Z,14.24
2018-04-26T09:16:32.151Z,13.71
2018-04-26T09:17:32.079Z,13.35
2018-04-26T09:19:23.884Z,12.43
2018-04-26T09:20:23.803Z,12.15
2018-04-26T09:22:15.625Z,11.45
2018-04-26T09:23:15.499Z,11.13
2018-04-26T09:25:07.272Z,10.75
2018-04-26T09:26:07.207Z,10.58
2018-04-26T09:27:58.994Z,10.44
2018-04-26T09:28:58.924Z,10.43
2018-04-26T09:30:50.689Z,10.26
2018-04-26T09:31:50.685Z,10.09
2018-04-26T09:33:42.412Z,10.25
2018-04-26T09:34:42.311Z,10.07
2018-04-26T09:36:34.100Z,9.89
2018-04-26T09:37:34.038Z,9.86
2018-04-26T09:39:25.821Z,9.71
2018-04-26T09:40:25.747Z,9.81
2018-04-26T09:42:17.579Z,9.70
2018-04-26T09:43:17.560Z,9.65
2018-04-26T09:45:09.324Z,9.74
2018-04-26T09:46:09.201Z,9.73
2018-04-26T09:48:01.016Z,9.55
2018-04-26T09:49:00.957Z,9.65
2018-04-26T09:50:52.706Z,9.59
2018-04-26T09:51:52.631Z,9.53
2018-04-26T09:53:44.489Z,9.62
2018-04-26T09:54:44.396Z,9.71
2018-04-26T09:56:36.192Z,9.98
2018-04-26T09:57:36.143Z,10.17
2018-04-26T09:59:27.956Z,10.51
2018-04-26T10:00:27.825Z,10.46
2018-04-26T10:02:19.611Z,10.69
2018-04-26T10:03:19.594Z,10.95
2018-04-26T10:05:11.418Z,11.30
2018-04-26T10:06:11.284Z,11.39
2018-04-26T10:08:03.123Z,11.33
2018-04-26T10:09:03.001Z,11.59
2018-04-26T10:10:54.828Z,12.74
2018-04-26T10:11:54.764Z,13.27
2018-04-26T10:13:46.539Z,14.12
2018-04-26T10:14:46.471Z,14.38
2018-04-26T10:16:38.236Z,14.97
2018-04-26T10:17:38.206Z,15.44
2018-04-26T10:19:30.006Z,15.04
2018-04-26T10:20:29.879Z,15.19
2018-04-26T10:22:21.666Z,14.94
2018-04-26T10:23:21.635Z,14.87
2018-04-26T10:25:13.547Z,14.72
2018-04-26T10:26:13.353Z,14.69
2018-04-26T10:28:05.202Z,15.59
2018-04-26T10:29:05.113Z,15.53
2018-04-26T10:30:56.965Z,15.74
2018-04-26T10:31:56.870Z,15.41
2018-04-26T10:33:48.681Z,15.59
2018-04-26T10:34:48.569Z,15.84
2018-04-26T10:36:40.406Z,15.43
2018-04-26T10:37:40.335Z,14.97
2018-04-26T10:39:32.126Z,14.69
2018-04-26T10:40:32.063Z,14.44
2018-04-26T10:42:23.841Z,14.13
2018-04-26T10:43:23.781Z,14.16
2018-04-26T10:45:15.580Z,13.75
2018-04-26T10:46:15.502Z,13.81
2018-04-26T10:48:07.293Z,14.16
2018-04-26T10:49:07.220Z,14.67
2018-04-26T10:50:59.063Z,15.55
2018-04-26T10:51:58.980Z,16.17
2018-04-26T10:53:50.956Z,16.85
2018-04-26T10:54:50.681Z,16.99
2018-04-26T10:56:42.483Z,16.08
2018-04-26T10:57:42.401Z,15.77
2018-04-26T10:59:34.197Z,15.22
2018-04-26T11:00:34.113Z,15.37
2018-04-26T11:02:25.890Z,15.56
2018-04-26T11:03:25.832Z,15.01
2018-04-26T11:05:17.674Z,14.59
2018-04-26T11:06:17.581Z,14.11
2018-04-26T11:08:09.334Z,14.30
2018-04-26T11:09:09.347Z,14.42
2018-04-26T11:11:01.084Z,14.41
2018-04-26T11:12:01.003Z,14.60
2018-04-26T11:14:16.319Z,14.97
2018-04-26T11:15:16.259Z,14.85
2018-04-26T11:17:08.052Z,14.83
2018-04-26T11:18:07.958Z,15.01
2018-04-26T11:19:59.781Z,14.95
2018-04-26T11:20:59.699Z,14.72
2018-04-26T11:22:51.464Z,14.80
2018-04-26T11:23:51.431Z,14.74
2018-04-26T11:25:43.285Z,14.79
2018-04-26T11:26:43.188Z,14.64
2018-04-26T11:28:35.124Z,14.87
2018-04-26T11:29:34.902Z,14.72
2018-04-26T11:31:26.769Z,14.82
2018-04-26T11:32:26.664Z,14.82
2018-04-26T11:34:18.422Z,14.93
2018-04-26T11:35:18.412Z,15.09
2018-04-26T11:37:10.152Z,15.18
2018-04-26T11:38:10.069Z,15.22
2018-04-26T11:40:02.048Z,15.34
2018-04-26T11:41:01.858Z,15.19
2018-04-26T11:42:53.621Z,15.00
2018-04-26T11:43:53.561Z,15.04
2018-04-26T11:45:45.409Z,15.07
2018-04-26T11:46:45.349Z,15.01
2018-04-26T11:48:37.086Z,15.19
2018-04-26T11:49:37.046Z,15.41
2018-04-26T11:51:28.864Z,15.56
2018-04-26T11:52:28.808Z,15.80
2018-04-26T11:54:20.521Z,15.92
2018-04-26T11:55:20.453Z,16.06
2018-04-26T11:57:12.260Z,15.91
2018-04-26T11:58:12.202Z,16.01
2018-04-26T12:00:04.024Z,15.93
2018-04-26T12:01:03.994Z,15.91
2018-04-26T12:02:55.674Z,16.13
2018-04-26T12:03:55.626Z,16.18
2018-04-26T12:05:47.452Z,16.16
2018-04-26T12:06:47.309Z,15.89
2018-04-26T12:08:39.155Z,15.77
2018-04-26T12:09:39.055Z,15.62
2018-04-26T12:11:30.856Z,15.33
2018-04-26T12:12:30.764Z,15.03
2018-04-26T12:14:22.616Z,14.79
2018-04-26T12:15:22.556Z,14.49
2018-04-26T12:17:14.322Z,14.21
2018-04-26T12:18:14.269Z,14.21
2018-04-26T12:20:06.109Z,13.83
2018-04-26T12:21:06.013Z,13.69
2018-04-26T12:22:57.841Z,13.31
2018-04-26T12:23:57.779Z,13.35
2018-04-26T12:25:49.479Z,13.31
2018-04-26T12:26:49.397Z,13.03
2018-04-26T12:28:41.157Z,12.95
2018-04-26T12:29:41.098Z,12.91
2018-04-26T12:31:32.889Z,12.89
2018-04-26T12:32:32.803Z,12.81
2018-04-26T12:34:24.551Z,12.77
2018-04-26T12:35:24.536Z,12.88
2018-04-26T12:37:16.272Z,12.89
2018-04-26T12:38:16.197Z,12.99
2018-04-26T12:40:08.015Z,13.10
2018-04-26T12:41:07.897Z,13.10
2018-04-26T12:42:59.668Z,13.21
2018-04-26T12:43:59.623Z,13.25
2018-04-26T12:45:51.399Z,13.21
2018-04-26T12:46:51.345Z,13.17
2018-04-26T12:48:43.160Z,13.13
2018-04-26T12:49:43.048Z,13.06
2018-04-26T12:51:34.818Z,12.85
2018-04-26T12:52:34.742Z,12.94
2018-04-26T12:54:26.576Z,12.67
2018-04-26T12:55:26.513Z,12.74
2018-04-26T12:57:18.267Z,12.58
2018-04-26T12:58:18.191Z,12.49
2018-04-26T13:00:09.968Z,12.23
2018-04-26T13:01:09.898Z,11.97
2018-04-26T13:03:01.713Z,11.44
2018-04-26T13:04:01.631Z,11.30
2018-04-26T13:05:53.489Z,10.98
2018-04-26T13:06:53.382Z,11.06
2018-04-26T13:08:45.148Z,11.02
2018-04-26T13:09:45.095Z,11.06
2018-04-26T13:11:37.323Z,11.11
2018-04-26T13:12:37.248Z,11.16
2018-04-26T13:14:29.023Z,11.31
2018-04-26T13:15:28.959Z,11.31
2018-04-26T13:17:20.789Z,11.46
2018-04-26T13:18:20.680Z,11.60
2018-04-26T13:20:12.433Z,12.13
2018-04-26T13:21:12.475Z,12.33
2018-04-26T13:23:04.153Z,12.38
2018-04-26T13:24:04.077Z,12.48
2018-04-26T13:25:55.874Z,12.48
2018-04-26T13:26:55.770Z,12.48
2018-04-26T13:28:47.563Z,12.33
2018-04-26T13:29:47.556Z,12.43
2018-04-26T13:31:39.231Z,12.55
2018-04-26T13:32:39.180Z,12.51
2018-04-26T13:34:30.941Z,12.36
2018-04-26T13:35:30.864Z,12.36
2018-04-26T13:37:22.657Z,12.36
2018-04-26T13:38:22.576Z,12.41
2018-04-26T13:40:14.359Z,12.40
2018-04-26T13:41:14.286Z,12.23
2018-04-26T13:43:06.142Z,12.30
2018-04-26T13:44:06.046Z,12.31
2018-04-26T13:45:57.781Z,12.25
2018-04-26T13:46:57.744Z,12.31
2018-04-26T13:48:49.489Z,12.46
2018-04-26T13:49:49.406Z,12.62
2018-04-26T13:51:41.186Z,12.92
2018-04-26T13:52:41.150Z,13.03
2018-04-26T13:54:32.877Z,13.51
2018-04-26T13:55:32.877Z,13.62
2018-04-26T13:57:24.611Z,13.72
2018-04-26T13:58:24.555Z,13.80
2018-04-26T14:00:16.345Z,13.79
2018-04-26T14:01:16.238Z,13.80
2018-04-26T14:03:08.042Z,13.54
2018-04-26T14:04:07.954Z,13.57
2018-04-26T14:05:59.772Z,13.38
2018-04-26T14:06:59.695Z,13.39
2018-04-26T14:08:51.516Z,13.31
2018-04-26T14:09:51.373Z,13.57
2018-04-26T14:11:43.172Z,13.87
2018-04-26T14:12:43.224Z,14.09
2018-04-26T14:14:34.918Z,14.26
2018-04-26T14:15:34.803Z,14.23
2018-04-26T14:17:26.670Z,14.24
2018-04-26T14:18:26.519Z,14.21
2018-04-26T14:20:18.298Z,14.21
2018-04-26T14:21:18.267Z,14.54
2018-04-26T14:23:10.131Z,14.74
2018-04-26T14:24:09.941Z,14.75
2018-04-26T14:26:01.820Z,14.71
2018-04-26T14:27:01.663Z,14.54
2018-04-26T14:28:53.514Z,14.48
2018-04-26T14:29:53.506Z,14.52
2018-04-26T14:31:45.171Z,14.46
2018-04-26T14:32:45.060Z,14.41
2018-04-26T14:34:36.834Z,14.42
2018-04-26T14:35:36.748Z,14.39
2018-04-26T14:37:28.632Z,14.46
2018-04-26T14:38:28.493Z,14.34
2018-04-26T14:40:20.355Z,14.13
2018-04-26T14:41:20.280Z,14.11
2018-04-26T14:43:12.090Z,14.04
2018-04-26T14:44:11.978Z,14.06
2018-04-26T14:46:03.745Z,14.09
2018-04-26T14:47:03.688Z,14.01
2018-04-26T14:48:55.498Z,13.84
2018-04-26T14:49:55.384Z,13.63
2018-04-26T14:51:47.155Z,13.16
2018-04-26T14:52:47.095Z,13.07
2018-04-26T14:54:38.983Z,12.95
2018-04-26T14:55:38.793Z,12.92
2018-04-26T14:57:30.618Z,12.81
2018-04-26T14:58:30.492Z,12.85
2018-04-26T15:00:22.387Z,13.19
2018-04-26T15:01:22.213Z,13.39
2018-04-26T15:03:14.053Z,13.68
2018-04-26T15:04:13.917Z,13.75
2018-04-26T15:06:05.957Z,13.57
2018-04-26T15:07:05.957Z,13.59
2018-04-26T15:08:57.688Z,13.39
2018-04-26T15:09:57.579Z,13.36
2018-04-26T15:11:49.361Z,13.12
2018-04-26T15:12:49.280Z,13.01
2018-04-26T15:14:41.099Z,12.92
2018-04-26T15:15:40.991Z,12.76
2018-04-26T15:17:32.842Z,12.54
2018-04-26T15:18:32.782Z,12.48
2018-04-26T15:20:24.561Z,12.61
2018-04-26T15:21:24.478Z,12.69
2018-04-26T15:23:16.283Z,12.79
2018-04-26T15:24:16.212Z,12.91
2018-04-26T15:26:07.970Z,12.85
2018-04-26T15:27:07.903Z,12.89
2018-04-26T15:28:59.726Z,12.95
2018-04-26T15:29:59.636Z,13.04
2018-04-26T15:31:51.599Z,12.91
2018-04-26T15:32:51.413Z,12.88
2018-04-26T15:34:43.184Z,12.88
2018-04-26T15:35:43.092Z,12.81
2018-04-26T15:37:34.904Z,12.70
2018-04-26T15:38:34.817Z,12.71
2018-04-26T15:40:26.570Z,12.80
2018-04-26T15:41:26.484Z,12.80
2018-04-26T15:43:18.260Z,12.71
2018-04-26T15:44:18.276Z,12.67
2018-04-26T15:46:09.938Z,12.52
2018-04-26T15:47:09.876Z,12.38
2018-04-26T15:49:01.655Z,12.33
2018-04-26T15:50:01.674Z,12.38
2018-04-26T15:51:53.377Z,12.66
2018-04-26T15:52:53.288Z,12.74
2018-04-26T15:54:45.095Z,13.04
2018-04-26T15:55:45.067Z,13.16
2018-04-26T15:57:36.785Z,13.21
2018-04-26T15:58:36.813Z,13.28
2018-04-26T16:00:28.565Z,13.21
2018-04-26T16:01:28.441Z,13.12
2018-04-26T16:03:20.209Z,12.98
2018-04-26T16:04:20.141Z,13.01
2018-04-26T16:06:11.925Z,12.95
2018-04-26T16:07:11.845Z,12.89
2018-04-26T16:09:03.650Z,12.88
2018-04-26T16:10:03.623Z,12.73
2018-04-26T16:11:55.335Z,12.88
2018-04-26T16:12:55.269Z,12.80
2018-04-26T16:14:47.047Z,12.63
2018-04-26T16:15:46.956Z,12.62
2018-04-26T16:17:38.737Z,12.66
2018-04-26T16:18:38.678Z,12.70
2018-04-26T16:20:30.487Z,12.62
2018-04-26T16:21:30.392Z,12.51
2018-04-26T16:23:22.173Z,12.49
2018-04-26T16:24:22.102Z,12.49
2018-04-26T16:26:13.878Z,12.38
2018-04-26T16:27:13.825Z,12.33
2018-04-26T16:29:05.598Z,12.48
2018-04-26T16:30:05.532Z,12.49
2018-04-26T16:31:57.276Z,12.52
2018-04-26T16:32:57.205Z,12.58
2018-04-26T16:34:49.099Z,12.62
2018-04-26T16:35:48.907Z,12.61
2018-04-26T16:37:40.684Z,12.63
2018-04-26T16:38:40.601Z,12.61
2018-04-26T16:40:32.393Z,12.58
2018-04-26T16:41:32.530Z,12.54
2018-04-26T16:43:24.054Z,12.46
2018-04-26T16:44:24.073Z,12.33
2018-04-26T16:46:15.781Z,12.48
2018-04-26T16:47:15.678Z,12.34
2018-04-26T16:49:07.497Z,12.38
2018-04-26T16:50:07.408Z,12.25
2018-04-26T16:51:59.263Z,12.21
2018-04-26T16:52:59.123Z,12.19
2018-04-26T16:54:50.915Z,12.16
2018-04-26T16:55:50.825Z,12.13
2018-04-26T16:57:42.683Z,12.25
2018-04-26T16:58:42.572Z,12.15
2018-04-26T17:00:34.408Z,12.12
2018-04-26T17:01:34.253Z,12.23
2018-04-26T17:03:26.028Z,12.11
2018-04-26T17:04:26.036Z,12.25
2018-04-26T17:06:17.730Z,12.19
2018-04-26T17:07:17.650Z,12.21
2018-04-26T17:09:09.517Z,12.21
2018-04-26T17:10:09.422Z,12.16
2018-04-26T17:12:01.190Z,12.25
2018-04-26T17:13:01.124Z,12.22
2018-04-26T17:14:52.923Z,12.15
2018-04-26T17:15:52.824Z,12.18
2018-04-26T17:17:44.743Z,12.00
2018-04-26T17:18:44.637Z,12.03
2018-04-26T17:20:36.468Z,11.98
2018-04-26T17:21:36.366Z,11.81
2018-04-26T17:23:28.175Z,11.74
2018-04-26T17:24:28.097Z,11.69
2018-04-26T17:26:19.881Z,11.75
2018-04-26T17:27:19.813Z,11.72
2018-04-26T17:29:11.580Z,11.69
2018-04-26T17:30:11.499Z,11.63
2018-04-26T17:32:03.348Z,11.63
2018-04-26T17:33:03.273Z,11.59
2018-04-26T17:34:55.032Z,11.51
2018-04-26T17:35:54.915Z,11.53
2018-04-26T17:37:46.717Z,11.56
2018-04-26T17:38:46.622Z,11.44
2018-04-26T17:40:38.394Z,11.39
2018-04-26T17:41:38.324Z,11.54
2018-04-26T17:43:30.130Z,11.44
2018-04-26T17:44:30.059Z,11.44
2018-04-26T17:46:22.341Z,11.38
2018-04-26T17:47:22.257Z,11.39
2018-04-26T17:49:14.048Z,11.48
2018-04-26T17:50:13.957Z,11.42
2018-04-26T17:52:05.779Z,11.44
2018-04-26T17:53:05.683Z,11.36
2018-04-26T17:54:57.510Z,11.41
2018-04-26T17:55:57.411Z,11.27
2018-04-26T17:57:49.201Z,11.21
2018-04-26T17:58:49.131Z,11.20
2018-04-26T18:00:40.987Z,11.17
2018-04-26T18:01:40.888Z,11.12
2018-04-26T18:03:32.660Z,11.02
2018-04-26T18:04:32.585Z,11.08
2018-04-26T18:06:24.396Z,11.03
2018-04-26T18:07:24.324Z,11.02
2018-04-26T18:09:16.100Z,10.94
2018-04-26T18:10:16.031Z,11.02
2018-04-26T18:12:07.814Z,10.95
2018-04-26T18:13:07.744Z,10.94
2018-04-26T18:14:59.538Z,10.95
2018-04-26T18:15:59.484Z,10.95
2018-04-26T18:17:51.239Z,10.90
2018-04-26T18:18:51.195Z,10.90
2018-04-26T18:20:42.934Z,10.88
2018-04-26T18:21:42.865Z,10.94
2018-04-26T18:23:34.677Z,10.88
2018-04-26T18:24:34.570Z,10.91
2018-04-26T18:26:26.356Z,10.95
2018-04-26T18:27:26.255Z,10.91
2018-04-26T18:29:18.093Z,10.95
2018-04-26T18:30:17.987Z,10.98
2018-04-26T18:32:09.874Z,11.01
2018-04-26T18:33:09.677Z,10.94
2018-04-26T18:35:01.441Z,10.81
2018-04-26T18:36:01.519Z,10.93
2018-04-26T18:37:53.168Z,10.94